Gillett, Wisconsin
Current Conditions -  °F | °C
As of 6:15 AM on Tuesday 27 Jan 2015 (Local Time) from KEZS Reporting Station
Overcast Overcast  
Wind Chill: 24°   Ceiling: 2200
Heat Index: 24°   Visibility: 10mi
Dew Point: 21°   Wind: 3mph
Humidity: 88%   Direction: 60°ENE
Pressure: 30.12"   Gusts: NA
Location:  44.89°N, 88.31°W
Report Text: KEZS 271215Z AUTO 06003KT 10SM SCT008 OVC022 M04/M06 A3012 RMK AO2 T10431060
Loading
Personal Weather Stations






























Interactive Weather Map New forecast layout! Learn more

10-Day Weather Forecast

Advertisements
Track Severe Weather on mobile